sensor_id;sensor_type;location;lat;lon;timestamp;P1;durP1;ratioP1;P2;durP2;ratioP2
3311;SDS011;1668;49.648;8.570;2023-03-19T00:02:23;9.63;;;6.13;;
3311;SDS011;1668;49.648;8.570;2023-03-19T00:04:50;9.77;;;6.33;;
3311;SDS011;1668;49.648;8.570;2023-03-19T00:07:16;10.20;;;6.47;;
3311;SDS011;1668;49.648;8.570;2023-03-19T00:09:43;9.90;;;6.73;;
3311;SDS011;1668;49.648;8.570;2023-03-19T00:12:12;10.97;;;6.33;;
3311;SDS011;1668;49.648;8.570;2023-03-19T00:14:39;9.30;;;5.63;;
3311;SDS011;1668;49.648;8.570;2023-03-19T00:17:07;10.60;;;5.23;;
3311;SDS011;1668;49.648;8.570;2023-03-19T00:19:35;7.93;;;5.90;;
3311;SDS011;1668;49.648;8.570;2023-03-19T00:22:02;8.63;;;5.67;;
3311;SDS011;1668;49.648;8.570;2023-03-19T00:24:29;7.20;;;5.20;;
3311;SDS011;1668;49.648;8.570;2023-03-19T00:26:56;9.00;;;5.63;;
3311;SDS011;1668;49.648;8.570;2023-03-19T00:29:22;9.67;;;6.10;;
3311;SDS011;1668;49.648;8.570;2023-03-19T00:31:49;10.20;;;5.97;;
3311;SDS011;1668;49.648;8.570;2023-03-19T00:34:18;8.43;;;5.63;;
3311;SDS011;1668;49.648;8.570;2023-03-19T00:36:44;8.30;;;5.40;;
3311;SDS011;1668;49.648;8.570;2023-03-19T00:39:12;9.10;;;6.03;;
3311;SDS011;1668;49.648;8.570;2023-03-19T00:41:38;8.13;;;4.80;;
3311;SDS011;1668;49.648;8.570;2023-03-19T00:44:05;6.90;;;5.57;;
3311;SDS011;1668;49.648;8.570;2023-03-19T00:46:32;8.60;;;6.13;;
3311;SDS011;1668;49.648;8.570;2023-03-19T00:48:59;9.07;;;5.90;;
3311;SDS011;1668;49.648;8.570;2023-03-19T00:51:28;8.60;;;5.60;;
3311;SDS011;1668;49.648;8.570;2023-03-19T00:53:54;9.50;;;5.50;;
3311;SDS011;1668;49.648;8.570;2023-03-19T00:56:21;9.80;;;6.00;;
3311;SDS011;1668;49.648;8.570;2023-03-19T00:58:48;8.33;;;4.90;;
3311;SDS011;1668;49.648;8.570;2023-03-19T01:01:15;7.90;;;5.63;;
3311;SDS011;1668;49.648;8.570;2023-03-19T01:03:43;8.07;;;5.37;;
3311;SDS011;1668;49.648;8.570;2023-03-19T01:06:11;7.80;;;5.80;;
3311;SDS011;1668;49.648;8.570;2023-03-19T01:08:39;13.37;;;7.80;;
3311;SDS011;1668;49.648;8.570;2023-03-19T01:11:07;17.87;;;8.30;;
3311;SDS011;1668;49.648;8.570;2023-03-19T01:13:36;15.03;;;8.00;;
3311;SDS011;1668;49.648;8.570;2023-03-19T01:16:03;13.63;;;7.50;;
3311;SDS011;1668;49.648;8.570;2023-03-19T01:18:30;10.93;;;7.40;;
3311;SDS011;1668;49.648;8.570;2023-03-19T01:20:58;12.40;;;7.03;;
3311;SDS011;1668;49.648;8.570;2023-03-19T01:23:25;8.93;;;6.80;;
3311;SDS011;1668;49.648;8.570;2023-03-19T01:25:53;12.80;;;6.60;;
3311;SDS011;1668;49.648;8.570;2023-03-19T01:28:21;10.83;;;6.67;;
3311;SDS011;1668;49.648;8.570;2023-03-19T01:30:48;11.60;;;6.70;;
3311;SDS011;1668;49.648;8.570;2023-03-19T01:33:15;14.37;;;6.37;;
3311;SDS011;1668;49.648;8.570;2023-03-19T01:35:44;10.67;;;6.50;;
3311;SDS011;1668;49.648;8.570;2023-03-19T01:38:11;10.90;;;6.73;;
3311;SDS011;1668;49.648;8.570;2023-03-19T01:40:42;8.07;;;5.60;;
3311;SDS011;1668;49.648;8.570;2023-03-19T01:43:12;9.20;;;6.27;;
3311;SDS011;1668;49.648;8.570;2023-03-19T01:45:42;9.13;;;5.93;;
3311;SDS011;1668;49.648;8.570;2023-03-19T01:48:11;11.00;;;7.47;;
3311;SDS011;1668;49.648;8.570;2023-03-19T01:50:45;10.97;;;7.40;;
3311;SDS011;1668;49.648;8.570;2023-03-19T01:53:18;10.83;;;8.07;;
3311;SDS011;1668;49.648;8.570;2023-03-19T01:55:46;15.40;;;9.23;;
3311;SDS011;1668;49.648;8.570;2023-03-19T01:58:15;16.37;;;8.33;;
3311;SDS011;1668;49.648;8.570;2023-03-19T02:00:42;12.90;;;8.67;;
3311;SDS011;1668;49.648;8.570;2023-03-19T02:03:09;13.20;;;8.77;;
3311;SDS011;1668;49.648;8.570;2023-03-19T02:05:36;12.67;;;7.67;;
3311;SDS011;1668;49.648;8.570;2023-03-19T02:08:06;11.80;;;7.50;;
3311;SDS011;1668;49.648;8.570;2023-03-19T02:10:36;10.70;;;7.00;;
3311;SDS011;1668;49.648;8.570;2023-03-19T02:13:03;9.47;;;6.33;;
3311;SDS011;1668;49.648;8.570;2023-03-19T02:15:32;8.40;;;5.77;;
3311;SDS011;1668;49.648;8.570;2023-03-19T02:17:58;12.33;;;6.60;;
3311;SDS011;1668;49.648;8.570;2023-03-19T02:20:26;8.23;;;5.00;;
3311;SDS011;1668;49.648;8.570;2023-03-19T02:22:59;9.03;;;5.73;;
3311;SDS011;1668;49.648;8.570;2023-03-19T02:25:34;9.20;;;5.77;;
3311;SDS011;1668;49.648;8.570;2023-03-19T02:28:07;9.80;;;5.37;;
3311;SDS011;1668;49.648;8.570;2023-03-19T02:30:35;10.00;;;6.10;;
3311;SDS011;1668;49.648;8.570;2023-03-19T02:33:03;7.97;;;5.27;;
3311;SDS011;1668;49.648;8.570;2023-03-19T02:35:30;10.57;;;6.33;;
3311;SDS011;1668;49.648;8.570;2023-03-19T02:38:00;9.70;;;5.83;;
3311;SDS011;1668;49.648;8.570;2023-03-19T02:40:28;7.77;;;5.30;;
3311;SDS011;1668;49.648;8.570;2023-03-19T02:43:00;10.03;;;5.43;;
3311;SDS011;1668;49.648;8.570;2023-03-19T02:45:28;6.73;;;5.47;;
3311;SDS011;1668;49.648;8.570;2023-03-19T02:47:56;9.00;;;5.40;;
3311;SDS011;1668;49.648;8.570;2023-03-19T02:50:24;10.53;;;5.40;;
3311;SDS011;1668;49.648;8.570;2023-03-19T02:52:51;6.33;;;5.23;;
3311;SDS011;1668;49.648;8.570;2023-03-19T02:55:18;9.00;;;5.33;;
3311;SDS011;1668;49.648;8.570;2023-03-19T02:57:45;9.60;;;6.23;;
3311;SDS011;1668;49.648;8.570;2023-03-19T03:00:12;8.37;;;5.70;;
3311;SDS011;1668;49.648;8.570;2023-03-19T03:02:42;9.63;;;5.00;;
3311;SDS011;1668;49.648;8.570;2023-03-19T03:05:09;9.63;;;5.40;;
3311;SDS011;1668;49.648;8.570;2023-03-19T03:07:36;9.00;;;5.60;;
3311;SDS011;1668;49.648;8.570;2023-03-19T03:10:04;7.57;;;5.40;;
3311;SDS011;1668;49.648;8.570;2023-03-19T03:12:32;8.43;;;5.27;;
3311;SDS011;1668;49.648;8.570;2023-03-19T03:14:59;7.17;;;4.80;;
3311;SDS011;1668;49.648;8.570;2023-03-19T03:17:26;9.73;;;4.73;;
3311;SDS011;1668;49.648;8.570;2023-03-19T03:19:54;10.17;;;5.30;;
3311;SDS011;1668;49.648;8.570;2023-03-19T03:22:21;8.80;;;5.37;;
3311;SDS011;1668;49.648;8.570;2023-03-19T03:24:48;6.80;;;5.00;;
3311;SDS011;1668;49.648;8.570;2023-03-19T03:27:15;7.10;;;5.03;;
3311;SDS011;1668;49.648;8.570;2023-03-19T03:29:42;5.60;;;4.93;;
3311;SDS011;1668;49.648;8.570;2023-03-19T03:32:09;9.63;;;5.73;;
3311;SDS011;1668;49.648;8.570;2023-03-19T03:34:36;6.97;;;4.97;;
3311;SDS011;1668;49.648;8.570;2023-03-19T03:37:05;6.23;;;5.03;;
3311;SDS011;1668;49.648;8.570;2023-03-19T03:39:32;7.50;;;4.90;;
3311;SDS011;1668;49.648;8.570;2023-03-19T03:41:59;6.90;;;5.10;;
3311;SDS011;1668;49.648;8.570;2023-03-19T03:44:25;6.10;;;4.90;;
3311;SDS011;1668;49.648;8.570;2023-03-19T03:46:52;9.03;;;5.17;;
3311;SDS011;1668;49.648;8.570;2023-03-19T03:49:19;7.50;;;4.50;;
3311;SDS011;1668;49.648;8.570;2023-03-19T03:51:46;6.00;;;4.13;;
3311;SDS011;1668;49.648;8.570;2023-03-19T03:54:15;6.73;;;5.03;;
3311;SDS011;1668;49.648;8.570;2023-03-19T03:56:41;5.80;;;4.13;;
3311;SDS011;1668;49.648;8.570;2023-03-19T03:59:08;7.70;;;4.30;;
3311;SDS011;1668;49.648;8.570;2023-03-19T04:01:35;8.70;;;4.67;;
3311;SDS011;1668;49.648;8.570;2023-03-19T04:04:02;6.13;;;4.07;;
3311;SDS011;1668;49.648;8.570;2023-03-19T04:06:29;7.67;;;5.00;;
3311;SDS011;1668;49.648;8.570;2023-03-19T04:08:56;13.20;;;4.80;;
3311;SDS011;1668;49.648;8.570;2023-03-19T04:11:24;5.63;;;4.30;;
3311;SDS011;1668;49.648;8.570;2023-03-19T04:13:53;6.57;;;4.53;;
3311;SDS011;1668;49.648;8.570;2023-03-19T04:16:20;6.77;;;4.33;;
3311;SDS011;1668;49.648;8.570;2023-03-19T04:18:47;7.60;;;4.17;;
3311;SDS011;1668;49.648;8.570;2023-03-19T04:21:14;7.00;;;5.10;;
3311;SDS011;1668;49.648;8.570;2023-03-19T04:23:41;7.93;;;4.70;;
3311;SDS011;1668;49.648;8.570;2023-03-19T04:26:08;6.73;;;4.60;;
3311;SDS011;1668;49.648;8.570;2023-03-19T04:28:37;8.27;;;4.30;;
3311;SDS011;1668;49.648;8.570;2023-03-19T04:31:05;7.50;;;4.37;;
3311;SDS011;1668;49.648;8.570;2023-03-19T04:33:33;6.57;;;5.00;;
3311;SDS011;1668;49.648;8.570;2023-03-19T04:36:00;7.07;;;4.07;;
3311;SDS011;1668;49.648;8.570;2023-03-19T04:38:28;9.73;;;4.30;;
3311;SDS011;1668;49.648;8.570;2023-03-19T04:40:56;6.93;;;4.73;;
3311;SDS011;1668;49.648;8.570;2023-03-19T04:43:23;6.93;;;4.53;;
3311;SDS011;1668;49.648;8.570;2023-03-19T04:45:52;10.03;;;4.80;;
3311;SDS011;1668;49.648;8.570;2023-03-19T04:48:19;9.80;;;5.00;;
3311;SDS011;1668;49.648;8.570;2023-03-19T04:50:46;12.70;;;4.73;;
3311;SDS011;1668;49.648;8.570;2023-03-19T04:53:16;7.10;;;4.50;;
3311;SDS011;1668;49.648;8.570;2023-03-19T04:55:44;9.73;;;5.20;;
3311;SDS011;1668;49.648;8.570;2023-03-19T04:58:11;7.47;;;4.80;;
3311;SDS011;1668;49.648;8.570;2023-03-19T05:00:38;7.00;;;5.17;;
3311;SDS011;1668;49.648;8.570;2023-03-19T05:03:06;7.90;;;4.90;;
3311;SDS011;1668;49.648;8.570;2023-03-19T05:05:33;7.40;;;5.40;;
3311;SDS011;1668;49.648;8.570;2023-03-19T05:08:00;10.73;;;5.23;;
3311;SDS011;1668;49.648;8.570;2023-03-19T05:10:27;9.23;;;5.30;;
3311;SDS011;1668;49.648;8.570;2023-03-19T05:12:54;8.13;;;4.80;;
3311;SDS011;1668;49.648;8.570;2023-03-19T05:15:21;8.93;;;5.13;;
3311;SDS011;1668;49.648;8.570;2023-03-19T05:17:48;9.67;;;5.30;;
3311;SDS011;1668;49.648;8.570;2023-03-19T05:20:16;6.97;;;5.47;;
3311;SDS011;1668;49.648;8.570;2023-03-19T05:22:43;8.57;;;5.63;;
3311;SDS011;1668;49.648;8.570;2023-03-19T05:25:11;8.17;;;5.37;;
3311;SDS011;1668;49.648;8.570;2023-03-19T05:27:38;7.53;;;4.57;;
3311;SDS011;1668;49.648;8.570;2023-03-19T05:30:06;8.73;;;4.97;;
3311;SDS011;1668;49.648;8.570;2023-03-19T05:32:34;6.47;;;4.60;;
3311;SDS011;1668;49.648;8.570;2023-03-19T05:35:01;8.20;;;5.10;;
3311;SDS011;1668;49.648;8.570;2023-03-19T05:37:31;6.93;;;4.60;;
3311;SDS011;1668;49.648;8.570;2023-03-19T05:39:58;7.90;;;5.37;;
3311;SDS011;1668;49.648;8.570;2023-03-19T05:42:25;9.07;;;5.00;;
3311;SDS011;1668;49.648;8.570;2023-03-19T05:44:52;9.40;;;4.90;;
3311;SDS011;1668;49.648;8.570;2023-03-19T05:47:19;6.37;;;4.93;;
3311;SDS011;1668;49.648;8.570;2023-03-19T05:49:45;7.23;;;4.67;;
3311;SDS011;1668;49.648;8.570;2023-03-19T05:52:12;8.10;;;5.37;;
3311;SDS011;1668;49.648;8.570;2023-03-19T05:54:40;9.60;;;5.13;;
3311;SDS011;1668;49.648;8.570;2023-03-19T05:57:07;7.90;;;4.93;;
3311;SDS011;1668;49.648;8.570;2023-03-19T05:59:34;7.73;;;5.10;;
3311;SDS011;1668;49.648;8.570;2023-03-19T06:02:01;10.30;;;4.93;;
3311;SDS011;1668;49.648;8.570;2023-03-19T06:04:28;8.30;;;5.63;;
3311;SDS011;1668;49.648;8.570;2023-03-19T06:06:55;7.90;;;5.03;;
3311;SDS011;1668;49.648;8.570;2023-03-19T06:09:22;7.30;;;5.50;;
3311;SDS011;1668;49.648;8.570;2023-03-19T06:11:50;8.40;;;5.17;;
3311;SDS011;1668;49.648;8.570;2023-03-19T06:14:17;9.63;;;5.23;;
3311;SDS011;1668;49.648;8.570;2023-03-19T06:16:44;8.93;;;5.80;;
3311;SDS011;1668;49.648;8.570;2023-03-19T06:19:10;8.73;;;5.70;;
3311;SDS011;1668;49.648;8.570;2023-03-19T06:21:37;7.37;;;4.70;;
3311;SDS011;1668;49.648;8.570;2023-03-19T06:24:04;7.07;;;5.03;;
3311;SDS011;1668;49.648;8.570;2023-03-19T06:26:31;8.93;;;5.17;;
3311;SDS011;1668;49.648;8.570;2023-03-19T06:29:00;9.50;;;5.43;;
3311;SDS011;1668;49.648;8.570;2023-03-19T06:31:27;13.10;;;5.10;;
3311;SDS011;1668;49.648;8.570;2023-03-19T06:33:54;9.50;;;5.63;;
3311;SDS011;1668;49.648;8.570;2023-03-19T06:36:21;7.70;;;5.27;;
3311;SDS011;1668;49.648;8.570;2023-03-19T06:38:48;9.30;;;5.20;;
3311;SDS011;1668;49.648;8.570;2023-03-19T06:41:15;6.20;;;4.90;;
3311;SDS011;1668;49.648;8.570;2023-03-19T06:43:42;10.43;;;5.03;;
3311;SDS011;1668;49.648;8.570;2023-03-19T06:46:10;11.67;;;5.00;;
3311;SDS011;1668;49.648;8.570;2023-03-19T06:48:37;8.07;;;4.83;;
3311;SDS011;1668;49.648;8.570;2023-03-19T06:51:04;7.57;;;5.13;;
3311;SDS011;1668;49.648;8.570;2023-03-19T06:53:31;10.30;;;5.93;;
3311;SDS011;1668;49.648;8.570;2023-03-19T06:55:58;8.43;;;5.30;;
3311;SDS011;1668;49.648;8.570;2023-03-19T06:58:25;10.73;;;4.83;;
3311;SDS011;1668;49.648;8.570;2023-03-19T07:00:52;9.03;;;6.10;;
3311;SDS011;1668;49.648;8.570;2023-03-19T07:03:20;10.57;;;4.83;;
3311;SDS011;1668;49.648;8.570;2023-03-19T07:05:47;6.93;;;4.70;;
3311;SDS011;1668;49.648;8.570;2023-03-19T07:08:15;8.27;;;5.50;;
3311;SDS011;1668;49.648;8.570;2023-03-19T07:10:42;9.77;;;4.80;;
3311;SDS011;1668;49.648;8.570;2023-03-19T07:13:08;6.83;;;4.93;;
3311;SDS011;1668;49.648;8.570;2023-03-19T07:15:35;7.10;;;5.43;;
3311;SDS011;1668;49.648;8.570;2023-03-19T07:18:02;7.80;;;5.40;;
3311;SDS011;1668;49.648;8.570;2023-03-19T07:20:31;7.73;;;5.20;;
3311;SDS011;1668;49.648;8.570;2023-03-19T07:22:57;9.20;;;5.60;;
3311;SDS011;1668;49.648;8.570;2023-03-19T07:25:24;9.40;;;5.73;;
3311;SDS011;1668;49.648;8.570;2023-03-19T07:27:51;8.13;;;5.30;;
3311;SDS011;1668;49.648;8.570;2023-03-19T07:30:18;8.20;;;4.90;;
3311;SDS011;1668;49.648;8.570;2023-03-19T07:32:45;9.23;;;5.63;;
3311;SDS011;1668;49.648;8.570;2023-03-19T07:35:12;12.40;;;6.53;;
3311;SDS011;1668;49.648;8.570;2023-03-19T07:37:40;11.93;;;6.80;;
3311;SDS011;1668;49.648;8.570;2023-03-19T07:40:08;9.37;;;5.70;;
3311;SDS011;1668;49.648;8.570;2023-03-19T07:42:35;9.77;;;5.57;;
3311;SDS011;1668;49.648;8.570;2023-03-19T07:45:02;10.03;;;5.80;;
3311;SDS011;1668;49.648;8.570;2023-03-19T07:47:30;8.10;;;5.87;;
3311;SDS011;1668;49.648;8.570;2023-03-19T07:49:57;10.60;;;7.10;;
3311;SDS011;1668;49.648;8.570;2023-03-19T07:52:24;13.13;;;6.30;;
3311;SDS011;1668;49.648;8.570;2023-03-19T07:54:53;10.73;;;6.40;;
3311;SDS011;1668;49.648;8.570;2023-03-19T07:57:19;10.53;;;5.47;;
3311;SDS011;1668;49.648;8.570;2023-03-19T07:59:46;13.13;;;5.80;;
3311;SDS011;1668;49.648;8.570;2023-03-19T08:02:13;7.70;;;5.17;;
3311;SDS011;1668;49.648;8.570;2023-03-19T08:04:40;9.60;;;6.00;;
3311;SDS011;1668;49.648;8.570;2023-03-19T08:07:07;7.97;;;5.00;;
3311;SDS011;1668;49.648;8.570;2023-03-19T08:09:36;9.47;;;5.30;;
3311;SDS011;1668;49.648;8.570;2023-03-19T08:12:05;9.80;;;5.33;;
3311;SDS011;1668;49.648;8.570;2023-03-19T08:14:33;9.63;;;5.47;;
3311;SDS011;1668;49.648;8.570;2023-03-19T08:17:00;10.60;;;5.43;;
3311;SDS011;1668;49.648;8.570;2023-03-19T08:19:27;15.60;;;5.73;;
3311;SDS011;1668;49.648;8.570;2023-03-19T08:21:53;8.70;;;5.37;;
3311;SDS011;1668;49.648;8.570;2023-03-19T08:24:20;8.40;;;5.00;;
3311;SDS011;1668;49.648;8.570;2023-03-19T08:26:48;11.00;;;5.40;;
3311;SDS011;1668;49.648;8.570;2023-03-19T08:29:17;10.33;;;4.87;;
3311;SDS011;1668;49.648;8.570;2023-03-19T08:31:43;7.30;;;4.67;;
3311;SDS011;1668;49.648;8.570;2023-03-19T08:34:10;6.70;;;5.20;;
3311;SDS011;1668;49.648;8.570;2023-03-19T08:36:37;6.13;;;4.60;;
3311;SDS011;1668;49.648;8.570;2023-03-19T08:39:04;9.70;;;4.70;;
3311;SDS011;1668;49.648;8.570;2023-03-19T08:41:31;5.57;;;4.20;;
3311;SDS011;1668;49.648;8.570;2023-03-19T08:43:58;6.90;;;5.00;;
3311;SDS011;1668;49.648;8.570;2023-03-19T08:46:26;7.77;;;4.50;;
3311;SDS011;1668;49.648;8.570;2023-03-19T08:48:53;12.93;;;6.03;;
3311;SDS011;1668;49.648;8.570;2023-03-19T08:51:20;8.30;;;5.20;;
3311;SDS011;1668;49.648;8.570;2023-03-19T08:53:49;8.80;;;5.77;;
3311;SDS011;1668;49.648;8.570;2023-03-19T08:56:16;9.60;;;5.23;;
3311;SDS011;1668;49.648;8.570;2023-03-19T08:58:43;10.83;;;5.17;;
3311;SDS011;1668;49.648;8.570;2023-03-19T09:01:11;7.30;;;5.47;;
3311;SDS011;1668;49.648;8.570;2023-03-19T09:03:40;10.60;;;5.63;;
3311;SDS011;1668;49.648;8.570;2023-03-19T09:06:09;9.20;;;5.07;;
3311;SDS011;1668;49.648;8.570;2023-03-19T09:08:38;8.27;;;5.20;;
3311;SDS011;1668;49.648;8.570;2023-03-19T09:11:05;6.60;;;5.10;;
3311;SDS011;1668;49.648;8.570;2023-03-19T09:13:32;8.60;;;5.37;;
3311;SDS011;1668;49.648;8.570;2023-03-19T09:16:00;6.13;;;3.70;;
3311;SDS011;1668;49.648;8.570;2023-03-19T09:18:27;7.10;;;4.23;;
3311;SDS011;1668;49.648;8.570;2023-03-19T09:20:56;5.83;;;3.73;;
3311;SDS011;1668;49.648;8.570;2023-03-19T09:23:27;8.07;;;3.80;;
3311;SDS011;1668;49.648;8.570;2023-03-19T09:25:54;6.33;;;3.60;;
3311;SDS011;1668;49.648;8.570;2023-03-19T09:28:22;7.70;;;3.57;;
3311;SDS011;1668;49.648;8.570;2023-03-19T09:30:50;8.00;;;3.60;;
3311;SDS011;1668;49.648;8.570;2023-03-19T09:33:17;4.90;;;3.07;;
3311;SDS011;1668;49.648;8.570;2023-03-19T09:35:48;5.40;;;3.60;;
3311;SDS011;1668;49.648;8.570;2023-03-19T09:38:18;6.17;;;3.70;;
3311;SDS011;1668;49.648;8.570;2023-03-19T09:40:46;5.33;;;3.10;;
3311;SDS011;1668;49.648;8.570;2023-03-19T09:46:08;4.90;;;2.57;;
3311;SDS011;1668;49.648;8.570;2023-03-19T09:48:39;5.70;;;2.80;;
3311;SDS011;1668;49.648;8.570;2023-03-19T09:51:14;5.37;;;2.50;;
3311;SDS011;1668;49.648;8.570;2023-03-19T09:53:48;5.37;;;3.13;;
3311;SDS011;1668;49.648;8.570;2023-03-19T09:56:21;5.90;;;2.80;;
3311;SDS011;1668;49.648;8.570;2023-03-19T09:58:49;14.00;;;3.50;;
3311;SDS011;1668;49.648;8.570;2023-03-19T10:01:20;6.70;;;2.90;;
3311;SDS011;1668;49.648;8.570;2023-03-19T10:03:57;4.47;;;2.93;;
3311;SDS011;1668;49.648;8.570;2023-03-19T10:06:33;5.03;;;2.80;;
3311;SDS011;1668;49.648;8.570;2023-03-19T10:09:11;6.30;;;2.93;;
3311;SDS011;1668;49.648;8.570;2023-03-19T10:11:53;5.47;;;2.60;;
3311;SDS011;1668;49.648;8.570;2023-03-19T10:17:36;3.50;;;2.63;;
3311;SDS011;1668;49.648;8.570;2023-03-19T10:20:09;4.97;;;2.70;;
3311;SDS011;1668;49.648;8.570;2023-03-19T10:22:46;4.00;;;2.33;;
3311;SDS011;1668;49.648;8.570;2023-03-19T10:25:18;4.20;;;2.50;;
3311;SDS011;1668;49.648;8.570;2023-03-19T10:27:49;4.27;;;2.50;;
3311;SDS011;1668;49.648;8.570;2023-03-19T10:30:21;3.90;;;2.80;;
3311;SDS011;1668;49.648;8.570;2023-03-19T10:32:49;3.00;;;2.23;;
3311;SDS011;1668;49.648;8.570;2023-03-19T10:35:26;4.30;;;2.70;;
3311;SDS011;1668;49.648;8.570;2023-03-19T10:38:08;4.90;;;2.30;;
3311;SDS011;1668;49.648;8.570;2023-03-19T10:40:50;7.60;;;2.60;;
3311;SDS011;1668;49.648;8.570;2023-03-19T10:43:29;5.17;;;2.70;;
3311;SDS011;1668;49.648;8.570;2023-03-19T10:45:58;3.17;;;2.10;;
3311;SDS011;1668;49.648;8.570;2023-03-19T10:48:25;4.87;;;2.10;;
3311;SDS011;1668;49.648;8.570;2023-03-19T10:50:54;6.23;;;2.37;;
3311;SDS011;1668;49.648;8.570;2023-03-19T10:53:26;4.80;;;2.10;;
3311;SDS011;1668;49.648;8.570;2023-03-19T10:56:01;5.10;;;2.23;;
3311;SDS011;1668;49.648;8.570;2023-03-19T10:58:31;3.97;;;2.33;;
3311;SDS011;1668;49.648;8.570;2023-03-19T11:01:02;8.97;;;3.03;;
3311;SDS011;1668;49.648;8.570;2023-03-19T11:03:31;7.03;;;2.93;;
3311;SDS011;1668;49.648;8.570;2023-03-19T11:06:14;6.83;;;3.17;;
3311;SDS011;1668;49.648;8.570;2023-03-19T11:08:46;6.27;;;3.33;;
3311;SDS011;1668;49.648;8.570;2023-03-19T11:11:24;8.17;;;2.73;;
3311;SDS011;1668;49.648;8.570;2023-03-19T11:13:57;3.93;;;2.77;;
3311;SDS011;1668;49.648;8.570;2023-03-19T11:16:24;6.50;;;2.57;;
3311;SDS011;1668;49.648;8.570;2023-03-19T11:18:51;3.80;;;2.60;;
3311;SDS011;1668;49.648;8.570;2023-03-19T11:21:22;5.00;;;3.00;;
3311;SDS011;1668;49.648;8.570;2023-03-19T11:23:51;3.23;;;2.23;;
3311;SDS011;1668;49.648;8.570;2023-03-19T11:26:18;4.67;;;2.60;;
3311;SDS011;1668;49.648;8.570;2023-03-19T11:28:50;4.90;;;2.60;;
3311;SDS011;1668;49.648;8.570;2023-03-19T11:31:19;5.20;;;2.67;;
3311;SDS011;1668;49.648;8.570;2023-03-19T11:33:52;5.70;;;2.50;;
3311;SDS011;1668;49.648;8.570;2023-03-19T11:36:24;4.33;;;2.30;;
3311;SDS011;1668;49.648;8.570;2023-03-19T11:39:06;4.67;;;2.63;;
3311;SDS011;1668;49.648;8.570;2023-03-19T11:44:36;4.07;;;2.40;;
3311;SDS011;1668;49.648;8.570;2023-03-19T11:47:11;3.90;;;2.73;;
3311;SDS011;1668;49.648;8.570;2023-03-19T11:49:48;4.53;;;3.00;;
3311;SDS011;1668;49.648;8.570;2023-03-19T11:52:28;6.43;;;2.53;;
3311;SDS011;1668;49.648;8.570;2023-03-19T11:55:09;4.40;;;2.20;;
3311;SDS011;1668;49.648;8.570;2023-03-19T11:57:56;3.40;;;2.27;;
3311;SDS011;1668;49.648;8.570;2023-03-19T12:00:35;5.80;;;2.17;;
3311;SDS011;1668;49.648;8.570;2023-03-19T12:06:16;3.87;;;2.23;;
3311;SDS011;1668;49.648;8.570;2023-03-19T12:08:53;4.50;;;2.07;;
3311;SDS011;1668;49.648;8.570;2023-03-19T12:11:26;2.30;;;2.00;;
3311;SDS011;1668;49.648;8.570;2023-03-19T12:14:01;5.63;;;2.40;;
3311;SDS011;1668;49.648;8.570;2023-03-19T12:16:43;3.37;;;2.20;;
3311;SDS011;1668;49.648;8.570;2023-03-19T12:19:26;2.90;;;2.20;;
3311;SDS011;1668;49.648;8.570;2023-03-19T12:22:07;4.87;;;2.20;;
3311;SDS011;1668;49.648;8.570;2023-03-19T12:24:50;3.20;;;2.07;;
3311;SDS011;1668;49.648;8.570;2023-03-19T12:27:27;2.97;;;2.17;;
3311;SDS011;1668;49.648;8.570;2023-03-19T12:29:59;4.30;;;2.40;;
3311;SDS011;1668;49.648;8.570;2023-03-19T12:32:48;4.93;;;2.70;;
3311;SDS011;1668;49.648;8.570;2023-03-19T12:35:34;7.73;;;3.53;;
3311;SDS011;1668;49.648;8.570;2023-03-19T12:38:03;4.27;;;2.63;;
3311;SDS011;1668;49.648;8.570;2023-03-19T12:40:37;8.43;;;2.50;;
3311;SDS011;1668;49.648;8.570;2023-03-19T12:43:13;4.10;;;2.43;;
3311;SDS011;1668;49.648;8.570;2023-03-19T12:45:44;4.93;;;2.50;;
3311;SDS011;1668;49.648;8.570;2023-03-19T12:48:15;4.70;;;2.57;;
3311;SDS011;1668;49.648;8.570;2023-03-19T12:50:48;4.20;;;2.63;;
3311;SDS011;1668;49.648;8.570;2023-03-19T12:53:20;5.10;;;2.27;;
3311;SDS011;1668;49.648;8.570;2023-03-19T12:55:54;4.67;;;2.80;;
3311;SDS011;1668;49.648;8.570;2023-03-19T12:58:28;3.10;;;2.00;;
3311;SDS011;1668;49.648;8.570;2023-03-19T13:01:05;3.53;;;2.37;;
3311;SDS011;1668;49.648;8.570;2023-03-19T13:03:40;6.50;;;2.20;;
3311;SDS011;1668;49.648;8.570;2023-03-19T13:06:15;3.90;;;2.07;;
3311;SDS011;1668;49.648;8.570;2023-03-19T13:08:46;4.87;;;1.93;;
3311;SDS011;1668;49.648;8.570;2023-03-19T13:11:19;4.23;;;2.03;;
3311;SDS011;1668;49.648;8.570;2023-03-19T13:13:57;4.87;;;2.30;;
3311;SDS011;1668;49.648;8.570;2023-03-19T13:16:32;3.50;;;2.10;;
3311;SDS011;1668;49.648;8.570;2023-03-19T13:19:09;5.47;;;2.10;;
3311;SDS011;1668;49.648;8.570;2023-03-19T13:21:43;3.30;;;1.93;;
3311;SDS011;1668;49.648;8.570;2023-03-19T13:24:14;3.63;;;2.37;;
3311;SDS011;1668;49.648;8.570;2023-03-19T13:26:46;2.20;;;1.83;;
3311;SDS011;1668;49.648;8.570;2023-03-19T13:29:16;3.10;;;2.33;;
3311;SDS011;1668;49.648;8.570;2023-03-19T13:31:45;5.13;;;2.17;;
3311;SDS011;1668;49.648;8.570;2023-03-19T13:34:23;4.20;;;2.73;;
3311;SDS011;1668;49.648;8.570;2023-03-19T13:36:58;3.40;;;2.13;;
3311;SDS011;1668;49.648;8.570;2023-03-19T13:39:30;2.93;;;2.20;;
3311;SDS011;1668;49.648;8.570;2023-03-19T13:42:15;5.00;;;2.47;;
3311;SDS011;1668;49.648;8.570;2023-03-19T13:44:49;3.90;;;2.00;;
3311;SDS011;1668;49.648;8.570;2023-03-19T13:47:41;2.53;;;2.10;;
3311;SDS011;1668;49.648;8.570;2023-03-19T13:56:07;6.53;;;4.30;;
3311;SDS011;1668;49.648;8.570;2023-03-19T13:58:47;4.60;;;3.00;;
3311;SDS011;1668;49.648;8.570;2023-03-19T14:04:04;7.07;;;2.83;;
3311;SDS011;1668;49.648;8.570;2023-03-19T14:06:42;5.97;;;3.60;;
3311;SDS011;1668;49.648;8.570;2023-03-19T14:09:27;3.80;;;2.63;;
3311;SDS011;1668;49.648;8.570;2023-03-19T14:12:22;4.13;;;2.20;;
3311;SDS011;1668;49.648;8.570;2023-03-19T14:14:57;3.33;;;2.40;;
3311;SDS011;1668;49.648;8.570;2023-03-19T14:17:29;2.40;;;2.00;;
3311;SDS011;1668;49.648;8.570;2023-03-19T14:19:59;3.97;;;2.03;;
3311;SDS011;1668;49.648;8.570;2023-03-19T14:22:53;2.90;;;2.23;;
3311;SDS011;1668;49.648;8.570;2023-03-19T14:25:51;2.33;;;1.90;;
3311;SDS011;1668;49.648;8.570;2023-03-19T14:28:34;4.17;;;2.20;;
3311;SDS011;1668;49.648;8.570;2023-03-19T14:31:13;5.17;;;2.70;;
3311;SDS011;1668;49.648;8.570;2023-03-19T14:33:47;5.00;;;2.10;;
3311;SDS011;1668;49.648;8.570;2023-03-19T14:36:19;3.53;;;2.43;;
3311;SDS011;1668;49.648;8.570;2023-03-19T14:38:50;4.80;;;2.63;;
3311;SDS011;1668;49.648;8.570;2023-03-19T14:41:21;4.37;;;2.60;;
3311;SDS011;1668;49.648;8.570;2023-03-19T14:43:54;6.70;;;2.53;;
3311;SDS011;1668;49.648;8.570;2023-03-19T14:47:02;3.80;;;2.30;;
3311;SDS011;1668;49.648;8.570;2023-03-19T14:52:42;2.03;;;1.53;;
3311;SDS011;1668;49.648;8.570;2023-03-19T14:55:15;3.70;;;2.00;;
3311;SDS011;1668;49.648;8.570;2023-03-19T14:57:42;3.50;;;1.93;;
3311;SDS011;1668;49.648;8.570;2023-03-19T15:00:12;3.40;;;2.10;;
3311;SDS011;1668;49.648;8.570;2023-03-19T15:02:42;5.43;;;1.60;;
3311;SDS011;1668;49.648;8.570;2023-03-19T15:05:13;6.03;;;2.63;;
3311;SDS011;1668;49.648;8.570;2023-03-19T15:07:52;2.00;;;1.70;;
3311;SDS011;1668;49.648;8.570;2023-03-19T15:10:24;4.70;;;1.90;;
3311;SDS011;1668;49.648;8.570;2023-03-19T15:12:56;4.20;;;2.67;;
3311;SDS011;1668;49.648;8.570;2023-03-19T15:15:41;3.73;;;2.30;;
3311;SDS011;1668;49.648;8.570;2023-03-19T15:18:21;5.57;;;3.60;;
3311;SDS011;1668;49.648;8.570;2023-03-19T15:20:50;3.00;;;2.50;;
3311;SDS011;1668;49.648;8.570;2023-03-19T15:23:20;7.63;;;2.63;;
3311;SDS011;1668;49.648;8.570;2023-03-19T15:25:49;3.10;;;1.90;;
3311;SDS011;1668;49.648;8.570;2023-03-19T15:28:21;2.10;;;1.53;;
3311;SDS011;1668;49.648;8.570;2023-03-19T15:30:53;2.00;;;1.73;;
3311;SDS011;1668;49.648;8.570;2023-03-19T15:33:22;5.17;;;2.00;;
3311;SDS011;1668;49.648;8.570;2023-03-19T15:35:52;4.07;;;2.23;;
3311;SDS011;1668;49.648;8.570;2023-03-19T15:38:22;10.53;;;7.63;;
3311;SDS011;1668;49.648;8.570;2023-03-19T15:40:54;7.80;;;4.80;;
3311;SDS011;1668;49.648;8.570;2023-03-19T15:43:22;5.87;;;3.50;;
3311;SDS011;1668;49.648;8.570;2023-03-19T15:45:51;3.77;;;2.10;;
3311;SDS011;1668;49.648;8.570;2023-03-19T15:48:20;2.47;;;1.63;;
3311;SDS011;1668;49.648;8.570;2023-03-19T15:50:49;2.90;;;1.73;;
3311;SDS011;1668;49.648;8.570;2023-03-19T15:53:20;2.73;;;1.70;;
3311;SDS011;1668;49.648;8.570;2023-03-19T15:55:50;2.43;;;1.70;;